Clorinda, Argentina
Current Conditions -  °F | °C
As of 11:00 AM on Friday 19 Dec 2014 (Local Time) from SGAS Reporting Station
Scattered Clouds Scattered Clouds  
Wind Chill: 90°   Ceiling: Unl
Heat Index: 100°   Visibility: 6mi
Dew Point: 75°   Wind: 3mph
Humidity: 62%   Direction: NA
Pressure: 29.77"   Gusts: NA
Location:  25.29°S, 57.72°W
Report Text: SGAS 191400Z VRB03KT 9999 SCT033 32/24 Q1008
Loading
Personal Weather Stations






























Interactive Weather Map New forecast layout! Learn more

10-Day Weather Forecast

Advertisements
Track Severe Weather on mobile